Bookmark and Share
Track history (hours):
 

Joy

Last reported at 2014-Apr-17 23:06 UTC. Time now 2014-Apr-18 00:18 UTC.
Position N 53°36' E 006°17'.

Length 105 m; draft 4 m.

Type: Cargo ship. MMSI: 305444000.

NotesDate/timePositionNaut miles runAvg speedWind from/ knotsBaromVisibWave heightAir tempDewpointWater temp
2014-Apr-17 23:06N 53°36' E 006°17'0 0.0
2014-Apr-17 22:18N 53°36' E 006°17'0 0.0
2014-Apr-17 21:24N 53°36' E 006°17'0 0.0
2014-Apr-17 20:33N 53°36' E 006°17'0 0.0
2014-Apr-17 19:33N 53°36' E 006°17'0 0.0
2014-Apr-17 18:26N 53°36' E 006°17'0 0.0
2014-Apr-17 17:32N 53°36' E 006°17'0 0.0
2014-Apr-17 16:23N 53°36' E 006°17'5 6.5
2014-Apr-17 15:33N 53°39' E 006°10'10 9.8
2014-Apr-17 14:33N 53°38' E 005°53'1111.0
2014-Apr-17 13:33N 53°35' E 005°36'1110.8
2014-Apr-17 12:33N 53°31' E 005°18'1111.2
2014-Apr-17 11:33N 53°28' E 005°00'1111.4
2014-Apr-17 10:33N 53°23' E 004°43'1211.7
2014-Apr-17 09:32N 53°13' E 004°34'1211.8
2014-Apr-17 08:33N 53°03' E 004°24'1212.2
2014-Apr-17 07:33N 52°52' E 004°15'1212.3
2014-Apr-17 06:33N 52°42' E 004°04'1312.7
2014-Apr-17 05:33N 52°33' E 003°48'1312.9
2014-Apr-17 04:33N 52°24' E 003°33'1313.2
2014-Apr-17 03:33N 52°15' E 003°17'4013.2
2014-Apr-17 00:32N 51°45' E 002°35'1211.9
2014-Apr-16 23:33N 51°35' E 002°23'1110.7
2014-Apr-16 22:33N 51°27' E 002°13'10 9.7
2014-Apr-16 21:33N 51°18' E 002°06'8 8.4
2014-Apr-16 20:34N 51°12' E 001°58'9 8.7
2014-Apr-16 19:33N 51°07' E 001°46'9 8.8
2014-Apr-16 18:31N 51°00' E 001°36'10 9.3
2014-Apr-16 17:29N 50°52' E 001°27'1010.5
2014-Apr-16 16:33N 50°43' E 001°22'2210.6
2014-Apr-16 14:32N 50°29' E 000°57'1111.0
2014-Apr-16 13:32N 50°26' E 000°41'1311.1
2014-Apr-16 12:21N 50°23' E 000°21'911.6
2014-Apr-16 11:33N 50°21' E 000°07'1312.7
2014-Apr-16 10:33N 50°17' W 000°12'1513.9
2014-Apr-16 09:29N 50°12' W 000°34'1714.6
2014-Apr-16 08:20N 50°08' W 000°60'204 7.1
2014-Apr-15 03:30N 51°23' W 005°60'1010.8
2014-Apr-15 02:32N 51°33' W 006°00'3913.0
2014-Apr-14 23:32N 52°12' W 005°53'70 9.9
2014-Apr-14 16:32N 53°21' W 006°13'0 0.3
2014-Apr-14 15:33N 53°21' W 006°13'0 0.0
2014-Apr-14 14:33N 53°21' W 006°13'0 0.0
2014-Apr-14 13:33N 53°21' W 006°13'0 0.0
2014-Apr-14 11:33N 53°21' W 006°13'0 0.0
2014-Apr-14 10:33N 53°21' W 006°13'0 0.0
2014-Apr-14 09:33N 53°21' W 006°13'0 0.0
2014-Apr-14 08:33N 53°21' W 006°13'0 0.0
2014-Apr-14 07:33N 53°21' W 006°13'0 0.0
2014-Apr-14 06:33N 53°21' W 006°13'0 0.0
2014-Apr-14 05:33N 53°21' W 006°13'0 0.0
2014-Apr-13 22:30N 53°21' W 006°13'0 0.0
2014-Apr-13 21:33N 53°21' W 006°13'0 0.0
2014-Apr-13 20:33N 53°21' W 006°13'0 0.0
2014-Apr-13 19:33N 53°21' W 006°13'0 0.0
2014-Apr-13 18:33N 53°21' W 006°13'0 0.0
2014-Apr-13 17:33N 53°21' W 006°13'0 0.0
2014-Apr-13 16:33N 53°21' W 006°13'0 0.0
2014-Apr-13 15:32N 53°21' W 006°13'0 0.0
2014-Apr-13 14:33N 53°21' W 006°13'0 0.0
2014-Apr-13 13:32N 53°21' W 006°13'0 0.0
2014-Apr-13 12:32N 53°21' W 006°13'0 0.0
2014-Apr-13 11:32N 53°21' W 006°13'0 0.0
2014-Apr-13 10:32N 53°21' W 006°13'0 0.0
2014-Apr-13 09:20N 53°21' W 006°13'0 0.0
2014-Apr-13 08:32N 53°21' W 006°13'0 0.0
2014-Apr-13 07:32N 53°21' W 006°13'0 0.0
2014-Apr-13 06:32N 53°21' W 006°13'0 0.0
2014-Apr-13 05:32N 53°21' W 006°13'0 0.0
2014-Apr-13 04:32N 53°21' W 006°13'0 0.0
2014-Apr-13 03:32N 53°21' W 006°13'0 0.0
2014-Apr-13 02:32N 53°21' W 006°13'0 0.0
2014-Apr-13 01:32N 53°21' W 006°13'0 0.0
2014-Apr-13 00:32N 53°21' W 006°13'0 0.0
2014-Apr-12 23:32N 53°21' W 006°13'0 0.0
2014-Apr-12 22:32N 53°21' W 006°13'0 0.0
2014-Apr-12 21:32N 53°21' W 006°13'0 0.0
2014-Apr-12 20:32N 53°21' W 006°13'0 0.0
2014-Apr-12 19:32N 53°21' W 006°13'0 0.1
2014-Apr-12 18:32N 53°21' W 006°13'0 0.0
2014-Apr-12 17:32N 53°21' W 006°13'0 0.0
2014-Apr-12 16:32N 53°21' W 006°13'0 0.0
2014-Apr-12 15:32N 53°21' W 006°13'0 0.0
2014-Apr-12 14:32N 53°21' W 006°13'0 0.0
2014-Apr-12 13:32N 53°21' W 006°13'0 0.0
2014-Apr-12 12:32N 53°21' W 006°13'0 0.0
2014-Apr-12 11:32N 53°21' W 006°13'0 0.0
2014-Apr-12 10:26N 53°21' W 006°13'0 0.0
2014-Apr-12 09:32N 53°21' W 006°13'0 0.0
2014-Apr-12 08:32N 53°21' W 006°13'0 0.0
2014-Apr-12 07:20N 53°21' W 006°13'0 0.0
2014-Apr-12 06:32N 53°21' W 006°13'0 0.0
2014-Apr-12 05:32N 53°21' W 006°13'0 0.0
2014-Apr-12 04:32N 53°21' W 006°13'0 0.0
2014-Apr-12 03:32N 53°21' W 006°13'0 0.0
2014-Apr-12 02:32N 53°21' W 006°13'0 0.0
2014-Apr-12 01:32N 53°21' W 006°13'0 0.0
2014-Apr-12 00:32N 53°21' W 006°13'0 0.0
2014-Apr-11 23:32N 53°21' W 006°13'0 0.0
2014-Apr-11 22:31N 53°21' W 006°13'0 0.0
2014-Apr-11 21:31N 53°21' W 006°13'0 0.0
2014-Apr-11 20:31N 53°21' W 006°13'0 0.0
2014-Apr-11 19:31N 53°21' W 006°13'0 0.0
2014-Apr-11 18:31N 53°21' W 006°13'0 0.0
2014-Apr-11 17:31N 53°21' W 006°13'0 0.0
2014-Apr-11 16:31N 53°21' W 006°13'0 0.0
2014-Apr-11 15:31N 53°21' W 006°13'0 0.0
2014-Apr-11 14:31N 53°21' W 006°13'0 0.0
2014-Apr-11 13:31N 53°21' W 006°13'0 0.0
2014-Apr-11 12:31N 53°21' W 006°13'0 0.0
2014-Apr-11 11:31N 53°21' W 006°13'0 0.0
2014-Apr-11 10:31N 53°21' W 006°13'0 0.0
2014-Apr-11 09:31N 53°21' W 006°13'0 0.0
2014-Apr-11 08:31N 53°21' W 006°13'0 0.3
2014-Apr-11 07:33N 53°21' W 006°13'8 3.7
2014-Apr-11 05:28N 53°18' W 006°01'5 4.2
2014-Apr-11 04:18N 53°13' W 005°59'239 7.5
2014-Apr-09 20:24N 50°12' W 001°47'1311.6
2014-Apr-09 19:16N 50°15' W 001°27'810.9
2014-Apr-09 18:33N 50°17' W 001°15'1010.0
2014-Apr-09 17:32N 50°19' W 000°60'9 9.6
2014-Apr-09 16:33N 50°22' W 000°45'10 9.6
2014-Apr-09 15:33N 50°24' W 000°31'3210.7
2014-Apr-09 12:33N 50°32' E 000°18'1211.7
2014-Apr-09 11:33N 50°35' E 000°36'1211.7
2014-Apr-09 10:33N 50°42' E 000°51'1111.5
2014-Apr-09 09:33N 50°49' E 001°05'1110.8
2014-Apr-09 08:32N 50°56' E 001°19'1010.2
2014-Apr-09 07:33N 51°03' E 001°30'1010.0
2014-Apr-09 06:33N 51°10' E 001°41'1110.8
2014-Apr-09 05:34N 51°18' E 001°53'1111.0
2014-Apr-09 04:33N 51°27' E 002°03'1211.9
2014-Apr-09 03:33N 51°37' E 002°14'139 9.9
2014-Apr-08 13:29N 53°26' E 004°35'5 5.7
2014-Apr-08 12:33N 53°29' E 004°42'7 6.8
2014-Apr-08 11:33N 53°32' E 004°52'8 7.9
2014-Apr-08 10:33N 53°35' E 005°05'9 8.6
2014-Apr-08 09:33N 53°37' E 005°19'1010.0
2014-Apr-08 08:33N 53°40' E 005°34'1110.6
2014-Apr-08 07:33N 53°44' E 005°51'4510.5
2014-Apr-08 03:16N 53°56' E 007°05'710.1
2014-Apr-08 02:33N 53°58' E 007°16'1010.0
2014-Apr-08 01:33N 54°01' E 007°32'10 9.8
2014-Apr-08 00:33N 54°02' E 007°49'1110.6
2014-Apr-07 23:33N 54°01' E 008°07'  

Dump ship's entire track history

sailing weather and tide predictions

Joy — V2EI9 — position and weather